sensor_id;sensor_type;location;lat;lon;timestamp;P1;durP1;ratioP1;P2;durP2;ratioP2
8232;SDS011;4157;48.074;9.952;2022-09-03T00:02:08;3.97;;;2.00;;
8232;SDS011;4157;48.074;9.952;2022-09-03T00:04:41;5.55;;;2.30;;
8232;SDS011;4157;48.074;9.952;2022-09-03T00:07:13;4.65;;;2.03;;
8232;SDS011;4157;48.074;9.952;2022-09-03T00:09:43;3.55;;;2.45;;
8232;SDS011;4157;48.074;9.952;2022-09-03T00:12:13;3.75;;;2.00;;
8232;SDS011;4157;48.074;9.952;2022-09-03T00:14:44;4.47;;;2.70;;
8232;SDS011;4157;48.074;9.952;2022-09-03T00:17:15;4.70;;;2.30;;
8232;SDS011;4157;48.074;9.952;2022-09-03T00:19:45;5.30;;;2.42;;
8232;SDS011;4157;48.074;9.952;2022-09-03T00:22:14;4.38;;;2.30;;
8232;SDS011;4157;48.074;9.952;2022-09-03T00:24:44;4.30;;;2.42;;
8232;SDS011;4157;48.074;9.952;2022-09-03T00:27:14;4.65;;;2.58;;
8232;SDS011;4157;48.074;9.952;2022-09-03T00:29:44;4.20;;;2.50;;
8232;SDS011;4157;48.074;9.952;2022-09-03T00:32:15;5.93;;;2.10;;
8232;SDS011;4157;48.074;9.952;2022-09-03T00:34:45;6.97;;;2.30;;
8232;SDS011;4157;48.074;9.952;2022-09-03T00:37:15;5.50;;;2.45;;
8232;SDS011;4157;48.074;9.952;2022-09-03T00:39:43;5.97;;;2.67;;
8232;SDS011;4157;48.074;9.952;2022-09-03T00:42:15;4.10;;;2.40;;
8232;SDS011;4157;48.074;9.952;2022-09-03T00:45:02;4.68;;;2.53;;
8232;SDS011;4157;48.074;9.952;2022-09-03T00:47:38;3.88;;;2.20;;
8232;SDS011;4157;48.074;9.952;2022-09-03T00:50:08;4.93;;;2.47;;
8232;SDS011;4157;48.074;9.952;2022-09-03T00:52:43;8.27;;;2.35;;
8232;SDS011;4157;48.074;9.952;2022-09-03T00:55:15;4.57;;;2.10;;
8232;SDS011;4157;48.074;9.952;2022-09-03T00:57:49;4.03;;;2.17;;
8232;SDS011;4157;48.074;9.952;2022-09-03T01:00:21;6.07;;;2.85;;
8232;SDS011;4157;48.074;9.952;2022-09-03T01:02:58;4.53;;;2.63;;
8232;SDS011;4157;48.074;9.952;2022-09-03T01:05:36;5.35;;;2.30;;
8232;SDS011;4157;48.074;9.952;2022-09-03T01:08:11;7.22;;;2.65;;
8232;SDS011;4157;48.074;9.952;2022-09-03T01:10:43;6.50;;;2.85;;
8232;SDS011;4157;48.074;9.952;2022-09-03T01:13:13;4.93;;;2.42;;
8232;SDS011;4157;48.074;9.952;2022-09-03T01:15:44;5.15;;;2.80;;
8232;SDS011;4157;48.074;9.952;2022-09-03T01:18:16;4.80;;;2.58;;
8232;SDS011;4157;48.074;9.952;2022-09-03T01:20:49;4.80;;;2.53;;
8232;SDS011;4157;48.074;9.952;2022-09-03T01:23:33;4.18;;;2.63;;
8232;SDS011;4157;48.074;9.952;2022-09-03T01:26:15;5.15;;;2.80;;
8232;SDS011;4157;48.074;9.952;2022-09-03T01:28:51;4.55;;;2.67;;
8232;SDS011;4157;48.074;9.952;2022-09-03T01:31:24;4.70;;;2.80;;
8232;SDS011;4157;48.074;9.952;2022-09-03T01:33:55;7.35;;;2.95;;
8232;SDS011;4157;48.074;9.952;2022-09-03T01:36:27;4.90;;;2.72;;
8232;SDS011;4157;48.074;9.952;2022-09-03T01:39:00;5.80;;;2.60;;
8232;SDS011;4157;48.074;9.952;2022-09-03T01:41:40;6.10;;;2.75;;
8232;SDS011;4157;48.074;9.952;2022-09-03T01:44:38;5.15;;;2.60;;
8232;SDS011;4157;48.074;9.952;2022-09-03T01:47:11;6.60;;;2.65;;
8232;SDS011;4157;48.074;9.952;2022-09-03T01:49:44;7.05;;;3.15;;
8232;SDS011;4157;48.074;9.952;2022-09-03T01:52:15;5.93;;;2.55;;
8232;SDS011;4157;48.074;9.952;2022-09-03T01:54:47;5.05;;;2.60;;
8232;SDS011;4157;48.074;9.952;2022-09-03T01:57:29;6.40;;;3.40;;
8232;SDS011;4157;48.074;9.952;2022-09-03T02:00:04;6.78;;;2.78;;
8232;SDS011;4157;48.074;9.952;2022-09-03T02:02:37;4.93;;;2.78;;
8232;SDS011;4157;48.074;9.952;2022-09-03T02:05:07;6.75;;;3.20;;
8232;SDS011;4157;48.074;9.952;2022-09-03T02:07:36;6.18;;;2.85;;
8232;SDS011;4157;48.074;9.952;2022-09-03T02:10:05;4.90;;;3.20;;
8232;SDS011;4157;48.074;9.952;2022-09-03T02:12:34;5.00;;;3.03;;
8232;SDS011;4157;48.074;9.952;2022-09-03T02:15:05;8.27;;;3.00;;
8232;SDS011;4157;48.074;9.952;2022-09-03T02:17:33;5.45;;;2.72;;
8232;SDS011;4157;48.074;9.952;2022-09-03T02:20:03;7.38;;;3.58;;
8232;SDS011;4157;48.074;9.952;2022-09-03T02:22:31;4.90;;;2.72;;
8232;SDS011;4157;48.074;9.952;2022-09-03T02:24:59;6.78;;;3.25;;
8232;SDS011;4157;48.074;9.952;2022-09-03T02:27:27;6.45;;;2.92;;
8232;SDS011;4157;48.074;9.952;2022-09-03T02:29:55;6.35;;;2.88;;
8232;SDS011;4157;48.074;9.952;2022-09-03T02:32:24;4.63;;;2.72;;
8232;SDS011;4157;48.074;9.952;2022-09-03T02:34:52;6.20;;;3.20;;
8232;SDS011;4157;48.074;9.952;2022-09-03T02:37:20;4.90;;;3.10;;
8232;SDS011;4157;48.074;9.952;2022-09-03T02:39:48;4.72;;;2.90;;
8232;SDS011;4157;48.074;9.952;2022-09-03T02:42:17;5.07;;;2.95;;
8232;SDS011;4157;48.074;9.952;2022-09-03T02:44:46;5.45;;;3.10;;
8232;SDS011;4157;48.074;9.952;2022-09-03T02:47:14;4.65;;;2.75;;
8232;SDS011;4157;48.074;9.952;2022-09-03T02:49:46;4.95;;;2.75;;
8232;SDS011;4157;48.074;9.952;2022-09-03T02:52:14;5.28;;;3.17;;
8232;SDS011;4157;48.074;9.952;2022-09-03T02:54:42;7.03;;;3.00;;
8232;SDS011;4157;48.074;9.952;2022-09-03T02:57:12;7.53;;;3.10;;
8232;SDS011;4157;48.074;9.952;2022-09-03T02:59:39;5.60;;;3.08;;
8232;SDS011;4157;48.074;9.952;2022-09-03T03:02:08;6.82;;;3.58;;
8232;SDS011;4157;48.074;9.952;2022-09-03T03:04:36;5.03;;;3.10;;
8232;SDS011;4157;48.074;9.952;2022-09-03T03:07:06;6.35;;;3.15;;
8232;SDS011;4157;48.074;9.952;2022-09-03T03:09:33;6.97;;;2.85;;
8232;SDS011;4157;48.074;9.952;2022-09-03T03:12:01;7.93;;;3.03;;
8232;SDS011;4157;48.074;9.952;2022-09-03T03:14:29;6.75;;;3.22;;
8232;SDS011;4157;48.074;9.952;2022-09-03T03:16:57;4.45;;;3.05;;
8232;SDS011;4157;48.074;9.952;2022-09-03T03:19:24;4.75;;;2.60;;
8232;SDS011;4157;48.074;9.952;2022-09-03T03:21:52;4.45;;;2.95;;
8232;SDS011;4157;48.074;9.952;2022-09-03T03:24:21;4.32;;;2.60;;
8232;SDS011;4157;48.074;9.952;2022-09-03T03:26:49;4.28;;;2.47;;
8232;SDS011;4157;48.074;9.952;2022-09-03T03:29:16;4.63;;;2.80;;
8232;SDS011;4157;48.074;9.952;2022-09-03T03:31:45;5.70;;;2.70;;
8232;SDS011;4157;48.074;9.952;2022-09-03T03:34:12;4.28;;;2.30;;
8232;SDS011;4157;48.074;9.952;2022-09-03T03:36:40;4.75;;;2.95;;
8232;SDS011;4157;48.074;9.952;2022-09-03T03:39:08;5.05;;;2.60;;
8232;SDS011;4157;48.074;9.952;2022-09-03T03:41:37;4.80;;;3.00;;
8232;SDS011;4157;48.074;9.952;2022-09-03T03:44:05;4.60;;;2.75;;
8232;SDS011;4157;48.074;9.952;2022-09-03T03:46:34;3.72;;;2.50;;
8232;SDS011;4157;48.074;9.952;2022-09-03T03:49:01;6.63;;;2.45;;
8232;SDS011;4157;48.074;9.952;2022-09-03T03:51:31;5.15;;;2.47;;
8232;SDS011;4157;48.074;9.952;2022-09-03T03:53:59;4.43;;;2.28;;
8232;SDS011;4157;48.074;9.952;2022-09-03T03:56:26;3.75;;;2.28;;
8232;SDS011;4157;48.074;9.952;2022-09-03T03:58:55;4.70;;;3.10;;
8232;SDS011;4157;48.074;9.952;2022-09-03T04:01:25;5.65;;;3.30;;
8232;SDS011;4157;48.074;9.952;2022-09-03T04:03:54;6.25;;;3.00;;
8232;SDS011;4157;48.074;9.952;2022-09-03T04:06:22;4.90;;;3.20;;
8232;SDS011;4157;48.074;9.952;2022-09-03T04:08:49;5.55;;;3.08;;
8232;SDS011;4157;48.074;9.952;2022-09-03T04:11:18;6.55;;;3.30;;
8232;SDS011;4157;48.074;9.952;2022-09-03T04:13:47;6.05;;;2.88;;
8232;SDS011;4157;48.074;9.952;2022-09-03T04:16:17;6.18;;;3.10;;
8232;SDS011;4157;48.074;9.952;2022-09-03T04:18:45;6.50;;;3.25;;
8232;SDS011;4157;48.074;9.952;2022-09-03T04:21:14;5.95;;;3.47;;
8232;SDS011;4157;48.074;9.952;2022-09-03T04:23:43;9.77;;;4.28;;
8232;SDS011;4157;48.074;9.952;2022-09-03T04:26:11;8.18;;;4.45;;
8232;SDS011;4157;48.074;9.952;2022-09-03T04:28:39;11.88;;;4.47;;
8232;SDS011;4157;48.074;9.952;2022-09-03T04:31:08;10.13;;;4.78;;
8232;SDS011;4157;48.074;9.952;2022-09-03T04:33:37;10.48;;;4.78;;
8232;SDS011;4157;48.074;9.952;2022-09-03T04:36:05;9.32;;;4.35;;
8232;SDS011;4157;48.074;9.952;2022-09-03T04:38:34;6.80;;;4.35;;
8232;SDS011;4157;48.074;9.952;2022-09-03T04:41:02;6.63;;;4.93;;
8232;SDS011;4157;48.074;9.952;2022-09-03T04:43:29;5.85;;;4.32;;
8232;SDS011;4157;48.074;9.952;2022-09-03T04:45:57;6.38;;;4.40;;
8232;SDS011;4157;48.074;9.952;2022-09-03T04:48:25;5.40;;;3.80;;
8232;SDS011;4157;48.074;9.952;2022-09-03T04:51:00;6.63;;;3.85;;
8232;SDS011;4157;48.074;9.952;2022-09-03T04:53:30;7.28;;;4.40;;
8232;SDS011;4157;48.074;9.952;2022-09-03T04:55:57;7.10;;;4.40;;
8232;SDS011;4157;48.074;9.952;2022-09-03T04:58:25;6.13;;;4.28;;
8232;SDS011;4157;48.074;9.952;2022-09-03T05:00:53;7.32;;;4.45;;
8232;SDS011;4157;48.074;9.952;2022-09-03T05:03:21;6.07;;;4.40;;
8232;SDS011;4157;48.074;9.952;2022-09-03T05:05:52;6.30;;;4.25;;
8232;SDS011;4157;48.074;9.952;2022-09-03T05:08:21;6.50;;;4.32;;
8232;SDS011;4157;48.074;9.952;2022-09-03T05:10:56;7.13;;;3.97;;
8232;SDS011;4157;48.074;9.952;2022-09-03T05:13:24;5.57;;;3.77;;
8232;SDS011;4157;48.074;9.952;2022-09-03T05:15:51;7.18;;;3.75;;
8232;SDS011;4157;48.074;9.952;2022-09-03T05:18:19;7.50;;;4.75;;
8232;SDS011;4157;48.074;9.952;2022-09-03T05:20:47;7.90;;;4.25;;
8232;SDS011;4157;48.074;9.952;2022-09-03T05:23:14;6.97;;;4.30;;
8232;SDS011;4157;48.074;9.952;2022-09-03T05:25:53;7.93;;;4.57;;
8232;SDS011;4157;48.074;9.952;2022-09-03T05:28:22;7.68;;;4.50;;
8232;SDS011;4157;48.074;9.952;2022-09-03T05:30:56;7.18;;;4.10;;
8232;SDS011;4157;48.074;9.952;2022-09-03T05:33:24;9.38;;;4.70;;
8232;SDS011;4157;48.074;9.952;2022-09-03T05:35:52;7.57;;;3.83;;
8232;SDS011;4157;48.074;9.952;2022-09-03T05:38:20;6.43;;;3.40;;
8232;SDS011;4157;48.074;9.952;2022-09-03T05:40:49;7.35;;;4.22;;
8232;SDS011;4157;48.074;9.952;2022-09-03T05:43:16;6.32;;;3.92;;
8232;SDS011;4157;48.074;9.952;2022-09-03T05:45:44;5.15;;;3.45;;
8232;SDS011;4157;48.074;9.952;2022-09-03T05:48:13;7.70;;;3.67;;
8232;SDS011;4157;48.074;9.952;2022-09-03T05:50:41;8.10;;;4.30;;
8232;SDS011;4157;48.074;9.952;2022-09-03T05:53:08;6.07;;;3.63;;
8232;SDS011;4157;48.074;9.952;2022-09-03T05:55:36;7.70;;;3.80;;
8232;SDS011;4157;48.074;9.952;2022-09-03T05:58:05;5.75;;;3.45;;
8232;SDS011;4157;48.074;9.952;2022-09-03T06:00:33;6.55;;;3.53;;
8232;SDS011;4157;48.074;9.952;2022-09-03T06:03:01;5.40;;;3.78;;
8232;SDS011;4157;48.074;9.952;2022-09-03T06:05:29;6.07;;;4.07;;
8232;SDS011;4157;48.074;9.952;2022-09-03T06:07:57;5.75;;;3.25;;
8232;SDS011;4157;48.074;9.952;2022-09-03T06:10:24;6.60;;;3.30;;
8232;SDS011;4157;48.074;9.952;2022-09-03T06:12:52;4.78;;;3.47;;
8232;SDS011;4157;48.074;9.952;2022-09-03T06:15:27;5.63;;;3.53;;
8232;SDS011;4157;48.074;9.952;2022-09-03T06:17:55;5.30;;;3.63;;
8232;SDS011;4157;48.074;9.952;2022-09-03T06:20:22;5.75;;;3.72;;
8232;SDS011;4157;48.074;9.952;2022-09-03T06:22:52;5.57;;;3.53;;
8232;SDS011;4157;48.074;9.952;2022-09-03T06:25:20;5.65;;;3.28;;
8232;SDS011;4157;48.074;9.952;2022-09-03T06:27:47;5.93;;;3.45;;
8232;SDS011;4157;48.074;9.952;2022-09-03T06:30:15;5.20;;;3.60;;
8232;SDS011;4157;48.074;9.952;2022-09-03T06:32:45;6.70;;;3.78;;
8232;SDS011;4157;48.074;9.952;2022-09-03T06:35:14;6.32;;;3.90;;
8232;SDS011;4157;48.074;9.952;2022-09-03T06:37:42;6.35;;;3.80;;
8232;SDS011;4157;48.074;9.952;2022-09-03T06:40:10;5.63;;;3.42;;
8232;SDS011;4157;48.074;9.952;2022-09-03T06:42:38;6.43;;;3.88;;
8232;SDS011;4157;48.074;9.952;2022-09-03T06:45:06;6.53;;;3.92;;
8232;SDS011;4157;48.074;9.952;2022-09-03T06:47:34;5.60;;;3.65;;
8232;SDS011;4157;48.074;9.952;2022-09-03T06:50:03;5.15;;;3.38;;
8232;SDS011;4157;48.074;9.952;2022-09-03T06:52:31;5.22;;;3.20;;
8232;SDS011;4157;48.074;9.952;2022-09-03T06:54:59;5.35;;;3.67;;
8232;SDS011;4157;48.074;9.952;2022-09-03T06:57:26;4.43;;;3.03;;
8232;SDS011;4157;48.074;9.952;2022-09-03T06:59:55;4.07;;;2.75;;
8232;SDS011;4157;48.074;9.952;2022-09-03T07:02:23;4.30;;;2.90;;
8232;SDS011;4157;48.074;9.952;2022-09-03T07:04:50;4.60;;;3.00;;
8232;SDS011;4157;48.074;9.952;2022-09-03T07:07:19;4.15;;;2.10;;
8232;SDS011;4157;48.074;9.952;2022-09-03T07:09:47;4.07;;;2.58;;
8232;SDS011;4157;48.074;9.952;2022-09-03T07:12:15;4.40;;;2.00;;
8232;SDS011;4157;48.074;9.952;2022-09-03T07:14:45;4.63;;;2.33;;
8232;SDS011;4157;48.074;9.952;2022-09-03T07:17:13;3.75;;;2.00;;
8232;SDS011;4157;48.074;9.952;2022-09-03T07:19:40;6.53;;;2.20;;
8232;SDS011;4157;48.074;9.952;2022-09-03T07:22:08;6.10;;;2.30;;
8232;SDS011;4157;48.074;9.952;2022-09-03T07:24:37;3.45;;;1.70;;
8232;SDS011;4157;48.074;9.952;2022-09-03T07:27:05;3.30;;;1.90;;
8232;SDS011;4157;48.074;9.952;2022-09-03T07:29:33;3.17;;;1.67;;
8232;SDS011;4157;48.074;9.952;2022-09-03T07:32:01;3.17;;;1.90;;
8232;SDS011;4157;48.074;9.952;2022-09-03T07:34:29;3.75;;;1.75;;
8232;SDS011;4157;48.074;9.952;2022-09-03T07:36:57;2.70;;;1.50;;
8232;SDS011;4157;48.074;9.952;2022-09-03T07:39:25;3.05;;;1.95;;
8232;SDS011;4157;48.074;9.952;2022-09-03T07:41:55;3.05;;;1.73;;
8232;SDS011;4157;48.074;9.952;2022-09-03T07:44:24;3.28;;;1.70;;
8232;SDS011;4157;48.074;9.952;2022-09-03T07:46:53;3.83;;;1.73;;
8232;SDS011;4157;48.074;9.952;2022-09-03T07:49:20;4.28;;;2.10;;
8232;SDS011;4157;48.074;9.952;2022-09-03T07:51:48;3.45;;;1.80;;
8232;SDS011;4157;48.074;9.952;2022-09-03T07:54:18;3.58;;;1.83;;
8232;SDS011;4157;48.074;9.952;2022-09-03T07:56:48;3.70;;;1.95;;
8232;SDS011;4157;48.074;9.952;2022-09-03T07:59:17;2.88;;;1.70;;
8232;SDS011;4157;48.074;9.952;2022-09-03T08:01:45;2.40;;;1.60;;
8232;SDS011;4157;48.074;9.952;2022-09-03T08:04:13;2.80;;;1.70;;
8232;SDS011;4157;48.074;9.952;2022-09-03T08:06:41;4.22;;;2.00;;
8232;SDS011;4157;48.074;9.952;2022-09-03T08:09:09;3.15;;;1.85;;
8232;SDS011;4157;48.074;9.952;2022-09-03T08:11:38;3.92;;;1.65;;
8232;SDS011;4157;48.074;9.952;2022-09-03T08:14:08;3.25;;;1.50;;
8232;SDS011;4157;48.074;9.952;2022-09-03T08:16:38;3.33;;;2.05;;
8232;SDS011;4157;48.074;9.952;2022-09-03T08:19:06;3.70;;;1.70;;
8232;SDS011;4157;48.074;9.952;2022-09-03T08:21:34;4.13;;;1.83;;
8232;SDS011;4157;48.074;9.952;2022-09-03T08:24:02;3.33;;;1.80;;
8232;SDS011;4157;48.074;9.952;2022-09-03T08:26:30;2.78;;;1.70;;
8232;SDS011;4157;48.074;9.952;2022-09-03T08:28:58;4.65;;;1.83;;
8232;SDS011;4157;48.074;9.952;2022-09-03T08:31:26;3.55;;;2.00;;
8232;SDS011;4157;48.074;9.952;2022-09-03T08:33:56;3.47;;;1.83;;
8232;SDS011;4157;48.074;9.952;2022-09-03T08:36:25;4.22;;;2.00;;
8232;SDS011;4157;48.074;9.952;2022-09-03T08:38:56;3.88;;;1.90;;
8232;SDS011;4157;48.074;9.952;2022-09-03T08:43:59;4.15;;;1.92;;
8232;SDS011;4157;48.074;9.952;2022-09-03T08:46:32;4.45;;;1.95;;
8232;SDS011;4157;48.074;9.952;2022-09-03T08:49:02;4.68;;;1.85;;
8232;SDS011;4157;48.074;9.952;2022-09-03T08:51:31;4.32;;;1.70;;
8232;SDS011;4157;48.074;9.952;2022-09-03T08:54:03;3.17;;;1.77;;
8232;SDS011;4157;48.074;9.952;2022-09-03T08:56:31;2.95;;;1.70;;
8232;SDS011;4157;48.074;9.952;2022-09-03T08:58:59;3.40;;;1.77;;
8232;SDS011;4157;48.074;9.952;2022-09-03T09:01:29;3.47;;;1.60;;
8232;SDS011;4157;48.074;9.952;2022-09-03T09:04:07;2.92;;;1.65;;
8232;SDS011;4157;48.074;9.952;2022-09-03T09:06:38;2.70;;;1.30;;
8232;SDS011;4157;48.074;9.952;2022-09-03T09:09:13;2.97;;;1.70;;
8232;SDS011;4157;48.074;9.952;2022-09-03T09:11:45;3.95;;;1.73;;
8232;SDS011;4157;48.074;9.952;2022-09-03T09:14:18;2.17;;;1.25;;
8232;SDS011;4157;48.074;9.952;2022-09-03T09:16:47;3.40;;;1.52;;
8232;SDS011;4157;48.074;9.952;2022-09-03T09:19:22;4.20;;;1.50;;
8232;SDS011;4157;48.074;9.952;2022-09-03T09:21:51;2.80;;;1.75;;
8232;SDS011;4157;48.074;9.952;2022-09-03T09:24:21;4.22;;;1.80;;
8232;SDS011;4157;48.074;9.952;2022-09-03T09:26:51;3.95;;;1.50;;
8232;SDS011;4157;48.074;9.952;2022-09-03T09:29:21;2.72;;;1.55;;
8232;SDS011;4157;48.074;9.952;2022-09-03T09:31:49;3.53;;;1.70;;
8232;SDS011;4157;48.074;9.952;2022-09-03T09:34:17;3.30;;;1.50;;
8232;SDS011;4157;48.074;9.952;2022-09-03T09:36:46;2.70;;;1.40;;
8232;SDS011;4157;48.074;9.952;2022-09-03T09:39:14;1.92;;;1.13;;
8232;SDS011;4157;48.074;9.952;2022-09-03T09:41:55;2.95;;;1.52;;
8232;SDS011;4157;48.074;9.952;2022-09-03T09:44:24;2.45;;;1.23;;
8232;SDS011;4157;48.074;9.952;2022-09-03T09:47:00;2.80;;;1.25;;
8232;SDS011;4157;48.074;9.952;2022-09-03T09:49:31;5.57;;;2.08;;
8232;SDS011;4157;48.074;9.952;2022-09-03T09:52:03;2.55;;;1.30;;
8232;SDS011;4157;48.074;9.952;2022-09-03T09:54:31;2.63;;;1.40;;
8232;SDS011;4157;48.074;9.952;2022-09-03T09:56:59;2.78;;;1.50;;
8232;SDS011;4157;48.074;9.952;2022-09-03T09:59:28;2.90;;;1.48;;
8232;SDS011;4157;48.074;9.952;2022-09-03T10:02:07;2.38;;;1.30;;
8232;SDS011;4157;48.074;9.952;2022-09-03T10:04:36;2.00;;;1.20;;
8232;SDS011;4157;48.074;9.952;2022-09-03T10:07:15;2.03;;;1.15;;
8232;SDS011;4157;48.074;9.952;2022-09-03T10:10:00;2.17;;;1.15;;
8232;SDS011;4157;48.074;9.952;2022-09-03T10:12:30;1.55;;;1.00;;
8232;SDS011;4157;48.074;9.952;2022-09-03T10:15:02;3.42;;;1.65;;
8232;SDS011;4157;48.074;9.952;2022-09-03T10:17:34;2.80;;;1.30;;
8232;SDS011;4157;48.074;9.952;2022-09-03T10:20:06;3.05;;;1.20;;
8232;SDS011;4157;48.074;9.952;2022-09-03T10:22:58;2.83;;;1.10;;
8232;SDS011;4157;48.074;9.952;2022-09-03T10:25:28;2.08;;;1.13;;
8232;SDS011;4157;48.074;9.952;2022-09-03T10:27:57;2.33;;;0.95;;
8232;SDS011;4157;48.074;9.952;2022-09-03T10:30:26;3.65;;;1.00;;
8232;SDS011;4157;48.074;9.952;2022-09-03T10:32:57;3.03;;;1.23;;
8232;SDS011;4157;48.074;9.952;2022-09-03T10:35:29;1.83;;;1.00;;
8232;SDS011;4157;48.074;9.952;2022-09-03T10:38:02;2.95;;;1.20;;
8232;SDS011;4157;48.074;9.952;2022-09-03T10:40:34;2.97;;;1.35;;
8232;SDS011;4157;48.074;9.952;2022-09-03T10:43:14;3.40;;;1.10;;
8232;SDS011;4157;48.074;9.952;2022-09-03T10:45:46;3.83;;;1.38;;
8232;SDS011;4157;48.074;9.952;2022-09-03T10:48:34;2.22;;;1.45;;
8232;SDS011;4157;48.074;9.952;2022-09-03T10:51:08;2.85;;;1.30;;
8232;SDS011;4157;48.074;9.952;2022-09-03T10:56:10;3.15;;;1.40;;
8232;SDS011;4157;48.074;9.952;2022-09-03T10:58:44;2.65;;;1.30;;
8232;SDS011;4157;48.074;9.952;2022-09-03T11:01:16;3.17;;;1.48;;
8232;SDS011;4157;48.074;9.952;2022-09-03T11:03:47;3.47;;;1.40;;
8232;SDS011;4157;48.074;9.952;2022-09-03T11:06:17;3.92;;;1.63;;
8232;SDS011;4157;48.074;9.952;2022-09-03T11:08:50;3.80;;;1.33;;
8232;SDS011;4157;48.074;9.952;2022-09-03T11:11:22;2.85;;;1.40;;
8232;SDS011;4157;48.074;9.952;2022-09-03T11:13:53;3.35;;;1.70;;
8232;SDS011;4157;48.074;9.952;2022-09-03T11:16:24;3.03;;;1.33;;
8232;SDS011;4157;48.074;9.952;2022-09-03T11:18:54;2.20;;;1.20;;
8232;SDS011;4157;48.074;9.952;2022-09-03T11:21:25;2.22;;;1.40;;
8232;SDS011;4157;48.074;9.952;2022-09-03T11:23:56;3.63;;;1.75;;
8232;SDS011;4157;48.074;9.952;2022-09-03T11:26:30;1.98;;;1.20;;
8232;SDS011;4157;48.074;9.952;2022-09-03T11:29:00;2.42;;;1.40;;
8232;SDS011;4157;48.074;9.952;2022-09-03T11:31:32;2.85;;;1.50;;
8232;SDS011;4157;48.074;9.952;2022-09-03T11:34:04;2.30;;;1.23;;
8232;SDS011;4157;48.074;9.952;2022-09-03T11:36:34;2.28;;;1.13;;
8232;SDS011;4157;48.074;9.952;2022-09-03T11:39:11;3.53;;;1.30;;
8232;SDS011;4157;48.074;9.952;2022-09-03T11:41:42;2.40;;;1.30;;
8232;SDS011;4157;48.074;9.952;2022-09-03T11:44:15;2.10;;;1.20;;
8232;SDS011;4157;48.074;9.952;2022-09-03T11:46:51;3.70;;;1.50;;
8232;SDS011;4157;48.074;9.952;2022-09-03T11:49:24;4.38;;;1.80;;
8232;SDS011;4157;48.074;9.952;2022-09-03T11:51:54;10.85;;;1.83;;
8232;SDS011;4157;48.074;9.952;2022-09-03T11:54:24;6.30;;;1.83;;
8232;SDS011;4157;48.074;9.952;2022-09-03T11:57:03;3.38;;;1.35;;
8232;SDS011;4157;48.074;9.952;2022-09-03T11:59:34;6.15;;;1.60;;
8232;SDS011;4157;48.074;9.952;2022-09-03T12:02:03;2.20;;;1.30;;
8232;SDS011;4157;48.074;9.952;2022-09-03T12:04:37;4.00;;;1.30;;
8232;SDS011;4157;48.074;9.952;2022-09-03T12:07:17;3.95;;;1.40;;
8232;SDS011;4157;48.074;9.952;2022-09-03T12:09:50;2.33;;;1.10;;
8232;SDS011;4157;48.074;9.952;2022-09-03T12:12:31;2.70;;;1.33;;
8232;SDS011;4157;48.074;9.952;2022-09-03T12:15:07;3.42;;;1.30;;
8232;SDS011;4157;48.074;9.952;2022-09-03T12:17:40;4.22;;;1.30;;
8232;SDS011;4157;48.074;9.952;2022-09-03T12:20:14;2.72;;;1.40;;
8232;SDS011;4157;48.074;9.952;2022-09-03T12:22:48;3.05;;;1.50;;
8232;SDS011;4157;48.074;9.952;2022-09-03T12:25:15;2.03;;;1.10;;
8232;SDS011;4157;48.074;9.952;2022-09-03T12:27:44;3.63;;;1.45;;
8232;SDS011;4157;48.074;9.952;2022-09-03T12:30:14;3.17;;;1.35;;
8232;SDS011;4157;48.074;9.952;2022-09-03T12:32:43;2.38;;;0.93;;
8232;SDS011;4157;48.074;9.952;2022-09-03T12:35:13;2.13;;;1.02;;
8232;SDS011;4157;48.074;9.952;2022-09-03T12:37:41;1.70;;;0.85;;
8232;SDS011;4157;48.074;9.952;2022-09-03T12:40:15;1.90;;;1.10;;
8232;SDS011;4157;48.074;9.952;2022-09-03T12:42:44;2.25;;;1.20;;
8232;SDS011;4157;48.074;9.952;2022-09-03T12:45:12;2.70;;;1.20;;
8232;SDS011;4157;48.074;9.952;2022-09-03T12:47:41;2.03;;;1.05;;
8232;SDS011;4157;48.074;9.952;2022-09-03T12:50:10;3.15;;;1.30;;
8232;SDS011;4157;48.074;9.952;2022-09-03T12:52:38;3.00;;;1.20;;
8232;SDS011;4157;48.074;9.952;2022-09-03T12:55:12;1.67;;;1.00;;
8232;SDS011;4157;48.074;9.952;2022-09-03T12:57:42;2.70;;;1.20;;
8232;SDS011;4157;48.074;9.952;2022-09-03T13:00:13;2.95;;;1.60;;
8232;SDS011;4157;48.074;9.952;2022-09-03T13:02:43;3.60;;;1.50;;
8232;SDS011;4157;48.074;9.952;2022-09-03T13:05:13;3.10;;;1.42;;
8232;SDS011;4157;48.074;9.952;2022-09-03T13:07:44;2.40;;;1.30;;
8232;SDS011;4157;48.074;9.952;2022-09-03T13:10:15;3.28;;;1.27;;
8232;SDS011;4157;48.074;9.952;2022-09-03T13:12:49;3.05;;;1.58;;
8232;SDS011;4157;48.074;9.952;2022-09-03T13:15:18;4.03;;;1.35;;
8232;SDS011;4157;48.074;9.952;2022-09-03T13:17:56;2.78;;;1.45;;
8232;SDS011;4157;48.074;9.952;2022-09-03T13:20:32;2.92;;;1.30;;
8232;SDS011;4157;48.074;9.952;2022-09-03T13:23:13;6.28;;;1.88;;
8232;SDS011;4157;48.074;9.952;2022-09-03T13:25:47;2.83;;;1.42;;
8232;SDS011;4157;48.074;9.952;2022-09-03T13:28:20;5.38;;;1.60;;
8232;SDS011;4157;48.074;9.952;2022-09-03T13:30:54;2.83;;;1.40;;
8232;SDS011;4157;48.074;9.952;2022-09-03T13:33:25;2.05;;;1.30;;
8232;SDS011;4157;48.074;9.952;2022-09-03T13:35:58;2.13;;;1.38;;
8232;SDS011;4157;48.074;9.952;2022-09-03T13:38:28;2.45;;;1.30;;
8232;SDS011;4157;48.074;9.952;2022-09-03T13:40:58;3.20;;;1.30;;
8232;SDS011;4157;48.074;9.952;2022-09-03T13:43:29;1.83;;;1.20;;
8232;SDS011;4157;48.074;9.952;2022-09-03T13:46:00;2.45;;;1.40;;
8232;SDS011;4157;48.074;9.952;2022-09-03T13:48:29;5.95;;;1.70;;
8232;SDS011;4157;48.074;9.952;2022-09-03T13:51:18;3.38;;;1.50;;
8232;SDS011;4157;48.074;9.952;2022-09-03T13:53:52;3.05;;;1.60;;
8232;SDS011;4157;48.074;9.952;2022-09-03T13:56:25;2.72;;;1.35;;
8232;SDS011;4157;48.074;9.952;2022-09-03T13:58:59;3.33;;;1.80;;
8232;SDS011;4157;48.074;9.952;2022-09-03T14:01:35;3.75;;;1.63;;
8232;SDS011;4157;48.074;9.952;2022-09-03T14:04:10;3.00;;;1.60;;
8232;SDS011;4157;48.074;9.952;2022-09-03T14:06:41;3.17;;;1.65;;
8232;SDS011;4157;48.074;9.952;2022-09-03T14:09:11;2.88;;;1.63;;
8232;SDS011;4157;48.074;9.952;2022-09-03T14:11:46;3.22;;;1.70;;
8232;SDS011;4157;48.074;9.952;2022-09-03T14:14:17;5.03;;;1.90;;
8232;SDS011;4157;48.074;9.952;2022-09-03T14:16:48;4.63;;;2.25;;
8232;SDS011;4157;48.074;9.952;2022-09-03T14:19:21;3.83;;;2.15;;
8232;SDS011;4157;48.074;9.952;2022-09-03T14:21:53;4.40;;;1.90;;
8232;SDS011;4157;48.074;9.952;2022-09-03T14:24:23;4.25;;;2.47;;
8232;SDS011;4157;48.074;9.952;2022-09-03T14:26:52;4.70;;;2.67;;
8232;SDS011;4157;48.074;9.952;2022-09-03T14:29:22;5.35;;;1.83;;
8232;SDS011;4157;48.074;9.952;2022-09-03T14:34:36;2.97;;;1.60;;
8232;SDS011;4157;48.074;9.952;2022-09-03T14:37:11;2.72;;;1.63;;
8232;SDS011;4157;48.074;9.952;2022-09-03T14:39:44;2.17;;;1.30;;
8232;SDS011;4157;48.074;9.952;2022-09-03T14:42:17;3.28;;;1.40;;
8232;SDS011;4157;48.074;9.952;2022-09-03T14:44:56;3.25;;;1.60;;
8232;SDS011;4157;48.074;9.952;2022-09-03T14:47:29;1.98;;;1.17;;
8232;SDS011;4157;48.074;9.952;2022-09-03T14:50:13;2.30;;;1.40;;
8232;SDS011;4157;48.074;9.952;2022-09-03T14:52:53;2.65;;;1.35;;
8232;SDS011;4157;48.074;9.952;2022-09-03T14:55:24;2.67;;;1.10;;
8232;SDS011;4157;48.074;9.952;2022-09-03T14:58:01;1.75;;;1.00;;
8232;SDS011;4157;48.074;9.952;2022-09-03T15:00:32;2.35;;;1.17;;
8232;SDS011;4157;48.074;9.952;2022-09-03T15:03:15;3.28;;;1.15;;
8232;SDS011;4157;48.074;9.952;2022-09-03T15:05:50;1.77;;;1.20;;
8232;SDS011;4157;48.074;9.952;2022-09-03T15:08:32;2.85;;;1.40;;
8232;SDS011;4157;48.074;9.952;2022-09-03T15:11:09;2.60;;;1.30;;
8232;SDS011;4157;48.074;9.952;2022-09-03T15:13:41;2.22;;;1.10;;
8232;SDS011;4157;48.074;9.952;2022-09-03T15:16:16;2.60;;;1.20;;
8232;SDS011;4157;48.074;9.952;2022-09-03T15:18:50;2.05;;;1.20;;
8232;SDS011;4157;48.074;9.952;2022-09-03T15:21:26;4.35;;;1.52;;
8232;SDS011;4157;48.074;9.952;2022-09-03T15:23:59;4.25;;;1.55;;
8232;SDS011;4157;48.074;9.952;2022-09-03T15:26:38;3.33;;;1.35;;
8232;SDS011;4157;48.074;9.952;2022-09-03T15:29:10;3.67;;;1.73;;
8232;SDS011;4157;48.074;9.952;2022-09-03T15:31:43;2.85;;;1.27;;
8232;SDS011;4157;48.074;9.952;2022-09-03T15:34:14;2.72;;;1.58;;
8232;SDS011;4157;48.074;9.952;2022-09-03T15:36:48;3.42;;;1.52;;
8232;SDS011;4157;48.074;9.952;2022-09-03T15:39:19;2.92;;;1.65;;
8232;SDS011;4157;48.074;9.952;2022-09-03T15:41:49;2.50;;;1.30;;
8232;SDS011;4157;48.074;9.952;2022-09-03T15:44:21;3.70;;;1.30;;
8232;SDS011;4157;48.074;9.952;2022-09-03T15:46:51;2.42;;;1.38;;